Time;durP1;ratioP1;P1;durP2;ratioP2;P2;SDS_P1;SDS_P2;PMS_P1;PMS_P2;Temp;Humidity;BMP_temperature;BMP_pressure;BME280_temperature;BME280_humidity;BME280_pressure;Samples;Min_cycle;Max_cycle;Signal;HPM_P1;HPM_P2
2021/04/11 00:00:38;;;;;;;9.38;7.05;;;;;;;7.67;42.23;99695.16;1665023;86;21054;-59
2021/04/11 00:03:07;;;;;;;9.85;7.37;;;;;;;7.65;42.31;99698.45;1665131;86;21660;-58
2021/04/11 00:05:37;;;;;;;8.73;7.37;;;;;;;7.61;42.47;99695.28;1656407;86;21201;-56
2021/04/11 00:08:07;;;;;;;10.03;6.60;;;;;;;7.59;42.52;99700.34;1671431;85;21272;-58
2021/04/11 00:10:38;;;;;;;9.98;7.40;;;;;;;7.56;42.60;99704.64;1655104;86;21531;-57
2021/04/11 00:13:10;;;;;;;10.50;7.00;;;;;;;7.55;42.63;99700.31;1641304;86;21683;-57
2021/04/11 00:15:37;;;;;;;13.32;7.58;;;;;;;7.54;42.71;99698.63;1657105;85;21146;-59
2021/04/11 00:18:06;;;;;;;7.33;6.37;;;;;;;7.50;42.80;99700.75;1636572;85;21169;-57
2021/04/11 00:20:33;;;;;;;8.68;6.53;;;;;;;7.46;42.83;99705.49;1669403;86;21451;-57
2021/04/11 00:23:01;;;;;;;9.55;6.95;;;;;;;7.46;42.89;99705.98;1671713;85;21164;-58
2021/04/11 00:25:31;;;;;;;9.05;7.08;;;;;;;7.45;42.94;99705.66;1647414;86;21154;-60
2021/04/11 00:27:59;;;;;;;9.58;7.37;;;;;;;7.44;42.97;99705.30;1660878;86;21607;-61
2021/04/11 00:30:26;;;;;;;8.95;6.80;;;;;;;7.42;43.02;99702.80;1671780;85;21081;-57
2021/04/11 00:32:56;;;;;;;10.75;6.92;;;;;;;7.41;43.06;99705.09;1669426;86;21393;-57
2021/04/11 00:35:23;;;;;;;9.58;6.75;;;;;;;7.39;43.11;99704.41;1666796;85;21184;-60
2021/04/11 00:37:51;;;;;;;10.28;6.65;;;;;;;7.38;43.17;99708.03;1669438;86;21161;-57
2021/04/11 00:40:23;;;;;;;10.85;6.97;;;;;;;7.36;43.24;99707.83;1671829;85;20971;-56
2021/04/11 00:43:01;;;;;;;10.25;7.20;;;;;;;7.34;43.30;99715.92;1665809;86;21646;-56
2021/04/11 00:45:39;;;;;;;9.38;7.05;;;;;;;7.33;43.27;99724.83;1653493;86;21404;-55
2021/04/11 00:48:08;;;;;;;11.57;6.67;;;;;;;7.33;43.31;99717.38;1628016;86;21044;-56
2021/04/11 00:50:36;;;;;;;8.80;6.12;;;;;;;7.32;43.27;99713.92;1668245;86;21031;-60
2021/04/11 00:53:05;;;;;;;11.20;7.20;;;;;;;7.32;43.28;99707.30;1671856;85;21123;-56
2021/04/11 00:55:33;;;;;;;12.10;6.65;;;;;;;7.31;43.32;99715.37;1663795;86;21054;-57
2021/04/11 00:58:01;;;;;;;9.48;6.15;;;;;;;7.30;43.37;99711.07;1647908;85;21545;-56
2021/04/11 01:00:33;;;;;;;9.35;7.33;;;;;;;7.30;43.33;99717.69;1662425;85;21102;-56
2021/04/11 01:03:01;;;;;;;8.38;7.08;;;;;;;7.30;43.35;99719.02;1671857;85;21043;-57
2021/04/11 01:05:33;;;;;;;10.70;6.62;;;;;;;7.29;43.38;99713.36;1669387;86;20982;-56
2021/04/11 01:11:16;;;;;;;9.60;6.78;;;;;;;7.32;43.39;99713.92;1839411;78;23355;-60
2021/04/11 01:13:47;;;;;;;9.13;6.95;;;;;;;7.26;43.41;99715.80;1744616;82;20935;-57
2021/04/11 01:16:15;;;;;;;7.80;6.37;;;;;;;7.25;43.50;99720.74;1761546;81;21273;-57
2021/04/11 01:18:43;;;;;;;10.03;6.55;;;;;;;7.23;43.60;99715.25;1766517;80;20934;-60
2021/04/11 01:21:43;;;;;;;7.67;6.53;;;;;;;7.19;43.71;99716.05;1773017;80;20946;-58
2021/04/11 01:24:19;;;;;;;8.20;6.10;;;;;;;7.15;43.80;99717.77;1748527;82;20993;-56
2021/04/11 01:26:50;;;;;;;7.90;7.05;;;;;;;7.09;43.92;99718.36;1744768;81;21030;-59
2021/04/11 01:29:18;;;;;;;10.43;7.03;;;;;;;7.07;44.03;99721.61;1756754;80;21384;-56
2021/04/11 01:31:46;;;;;;;9.85;6.87;;;;;;;7.03;44.08;99720.24;1731354;82;21607;-60
2021/04/11 01:34:14;;;;;;;9.08;6.62;;;;;;;7.00;44.13;99717.39;1760869;80;20909;-59
2021/04/11 01:36:44;;;;;;;8.33;6.80;;;;;;;6.98;44.17;99724.64;1778670;80;21199;-56
2021/04/11 01:39:17;;;;;;;10.82;6.65;;;;;;;6.96;44.18;99715.19;1765904;80;21124;-58
2021/04/11 01:41:48;;;;;;;7.40;6.37;;;;;;;6.96;44.17;99714.67;1750021;82;20974;-57
2021/04/11 01:44:18;;;;;;;8.80;6.90;;;;;;;6.97;44.18;99710.22;1780849;80;20958;-60
2021/04/11 01:46:48;;;;;;;10.43;7.00;;;;;;;6.97;44.20;99716.35;1715631;81;21021;-57
2021/04/11 01:49:17;;;;;;;8.30;6.67;;;;;;;6.96;44.20;99719.96;1765630;80;21128;-55
2021/04/11 01:51:47;;;;;;;8.98;7.53;;;;;;;6.96;44.20;99723.92;1761467;80;21121;-58
2021/04/11 01:54:21;;;;;;;11.10;7.28;;;;;;;6.95;44.21;99728.05;1737337;82;21366;-57
2021/04/11 01:56:49;;;;;;;12.98;7.33;;;;;;;6.94;44.28;99725.05;1734325;81;21125;-57
2021/04/11 01:59:19;;;;;;;10.00;6.87;;;;;;;6.91;44.32;99731.45;1755614;80;20985;-55
2021/04/11 02:01:48;;;;;;;9.58;7.62;;;;;;;6.88;44.39;99729.11;1731190;80;21140;-59
2021/04/11 02:04:17;;;;;;;10.35;7.20;;;;;;;6.84;44.39;99727.70;1726652;82;21623;-59
2021/04/11 02:06:52;;;;;;;12.28;6.92;;;;;;;6.82;44.44;99729.67;1720030;82;21284;-56
2021/04/11 02:09:33;;;;;;;7.95;6.28;;;;;;;6.81;44.34;99728.83;1720404;81;21077;-57
2021/04/11 02:12:06;;;;;;;10.63;6.67;;;;;;;6.83;44.30;99727.34;1797319;79;20990;-58
2021/04/11 02:14:41;;;;;;;10.43;7.03;;;;;;;6.84;44.21;99728.55;1805625;79;21009;-61
2021/04/11 02:17:11;;;;;;;9.63;6.42;;;;;;;6.86;44.15;99728.40;1732745;82;21015;-59
2021/04/11 02:19:39;;;;;;;11.73;6.80;;;;;;;6.87;44.09;99730.08;1758633;81;21372;-56
2021/04/11 02:22:25;;;;;;;7.75;6.60;;;;;;;6.88;43.99;99728.27;1762362;80;20959;-57
2021/04/11 02:24:55;;;;;;;9.20;6.22;;;;;;;6.89;43.97;99725.47;1756018;81;20950;-59
2021/04/11 02:27:22;;;;;;;10.58;7.05;;;;;;;6.89;43.94;99724.16;1674246;81;21099;-57
2021/04/11 02:29:51;;;;;;;11.85;6.53;;;;;;;6.90;43.93;99723.19;1732010;81;21073;-57
2021/04/11 02:32:18;;;;;;;8.15;6.50;;;;;;;6.90;43.93;99726.31;1756021;81;21350;-56
2021/04/11 02:34:46;;;;;;;8.45;6.20;;;;;;;6.88;43.93;99722.50;1755971;81;21036;-56
2021/04/11 02:37:22;;;;;;;8.65;6.75;;;;;;;6.88;43.95;99726.47;1789610;79;21237;-59
2021/04/11 02:39:54;;;;;;;7.10;6.10;;;;;;;6.87;43.96;99730.08;1722776;80;21548;-57
2021/04/11 02:42:26;;;;;;;9.33;6.58;;;;;;;6.84;44.01;99730.35;1741167;82;21136;-57
2021/04/11 02:44:57;;;;;;;9.25;6.45;;;;;;;6.82;44.02;99733.16;1745890;82;20938;-58
2021/04/11 02:47:28;;;;;;;7.58;6.22;;;;;;;6.80;44.05;99735.08;1747302;81;21030;-56
2021/04/11 02:49:57;;;;;;;6.72;5.97;;;;;;;6.78;44.08;99730.91;1747035;81;21151;-59
2021/04/11 02:52:34;;;;;;;9.23;6.85;;;;;;;6.77;44.06;99727.94;1759092;81;21176;-56
2021/04/11 02:55:04;;;;;;;6.70;4.97;;;;;;;6.75;44.10;99729.89;1775337;80;21171;-57
2021/04/11 02:57:31;;;;;;;8.75;6.08;;;;;;;6.73;44.11;99735.78;1741553;80;21374;-57
2021/04/11 03:00:01;;;;;;;8.38;6.70;;;;;;;6.72;44.12;99742.91;1736786;82;20942;-58
2021/04/11 03:02:30;;;;;;;8.55;6.33;;;;;;;6.73;44.07;99736.63;1753673;79;21120;-59
2021/04/11 03:05:05;;;;;;;9.58;6.35;;;;;;;6.74;44.06;99733.50;1804797;79;21195;-58
2021/04/11 03:07:46;;;;;;;8.35;6.22;;;;;;;6.74;44.02;99734.34;1807356;79;21049;-58
2021/04/11 03:10:25;;;;;;;7.17;6.00;;;;;;;6.74;44.01;99734.34;1794678;79;22297;-58
2021/04/11 03:12:53;;;;;;;7.75;6.28;;;;;;;6.74;44.00;99737.46;1776632;79;21001;-61
2021/04/11 03:15:23;;;;;;;7.85;5.58;;;;;;;6.73;44.03;99739.75;1781169;79;20949;-57
2021/04/11 03:17:53;;;;;;;8.95;6.15;;;;;;;6.73;44.04;99736.63;1802228;79;20962;-58
2021/04/11 03:20:30;;;;;;;9.30;6.12;;;;;;;6.73;44.04;99735.78;1805159;79;20915;-60
2021/04/11 03:23:02;;;;;;;9.33;6.92;;;;;;;6.72;44.07;99748.67;1801140;79;21345;-57
2021/04/11 03:25:32;;;;;;;8.40;6.45;;;;;;;6.72;44.04;99747.34;1787408;79;21021;-56
2021/04/11 03:28:07;;;;;;;8.25;6.50;;;;;;;6.70;44.07;99750.63;1738036;82;21049;-56
2021/04/11 03:30:49;;;;;;;7.72;6.10;;;;;;;6.70;44.04;99746.66;1746803;81;21069;-56
2021/04/11 03:33:18;;;;;;;9.03;6.47;;;;;;;6.70;44.07;99746.66;1738727;82;21061;-58
2021/04/11 03:35:47;;;;;;;9.50;6.28;;;;;;;6.69;44.02;99743.17;1769381;80;22269;-55
2021/04/11 03:38:19;;;;;;;6.42;5.62;;;;;;;6.69;44.03;99746.30;1737750;82;20956;-59
2021/04/11 03:40:51;;;;;;;7.50;5.90;;;;;;;6.70;44.01;99746.66;1728338;80;21086;-57
2021/04/11 03:43:48;;;;;;;9.70;6.10;;;;;;;6.73;44.03;99755.61;1705123;82;21591;-56
2021/04/11 03:46:46;;;;;;;8.68;5.87;;;;;;;6.78;43.97;99755.55;1756181;81;21133;-57
2021/04/11 03:49:30;;;;;;;7.15;6.45;;;;;;;6.86;43.87;99748.23;1696208;82;21001;-57
2021/04/11 03:52:01;;;;;;;8.13;6.58;;;;;;;6.96;43.70;99754.34;1744360;81;21183;-56
2021/04/11 03:54:32;;;;;;;8.75;6.00;;;;;;;7.08;43.50;99761.17;1805030;79;20985;-56
2021/04/11 03:57:08;;;;;;;6.80;5.92;;;;;;;7.23;43.24;99754.94;1716425;82;20989;-57
2021/04/11 03:59:45;;;;;;;9.10;6.12;;;;;;;7.39;42.96;99755.19;1754058;80;21575;-57
2021/04/11 04:02:15;;;;;;;;;;;;;;;7.58;42.67;99757.79;1740937;82;21207;-59
2021/04/11 04:04:43;;;;;;;6.97;5.92;;;;;;;7.73;42.41;99768.73;1718606;82;20232;-57
2021/04/11 04:07:18;;;;;;;11.70;6.28;;;;;;;7.84;42.39;99775.18;1711940;82;21010;-58
2021/04/11 04:10:02;;;;;;;9.40;6.72;;;;;;;7.95;42.30;99781.63;1823132;78;23331;-59
2021/04/11 04:13:04;;;;;;;7.55;6.17;;;;;;;7.93;42.47;99783.56;1784704;79;20934;-57
2021/04/11 04:15:45;;;;;;;9.48;6.80;;;;;;;7.95;42.53;99782.95;1801422;79;20936;-58
2021/04/11 04:18:43;;;;;;;9.68;6.45;;;;;;;8.00;42.57;99785.47;1805223;79;21192;-57
2021/04/11 04:21:32;;;;;;;10.72;7.20;;;;;;;8.13;42.52;99789.63;1801372;78;20989;-57
2021/04/11 04:24:33;;;;;;;9.28;7.50;;;;;;;8.24;42.35;99783.61;1788372;79;21536;-60
2021/04/11 04:27:29;;;;;;;8.88;6.95;;;;;;;8.36;42.29;99786.94;1751845;80;21121;-61
2021/04/11 04:30:05;;;;;;;;;;;;;;;8.50;42.13;99785.09;1785662;77;21370;-57
2021/04/11 04:33:09;;;;;;;7.00;6.28;;;;;;;8.74;41.87;99776.06;1820415;78;21005;-59
2021/04/11 04:35:58;;;;;;;8.10;6.83;;;;;;;8.88;41.62;99780.84;1784732;79;20954;-57
2021/04/11 04:38:30;;;;;;;10.70;7.42;;;;;;;9.08;41.23;99778.84;1789951;79;21355;-59
2021/04/11 04:41:40;;;;;;;7.95;6.83;;;;;;;9.30;40.88;99780.54;1808993;79;21196;-58
2021/04/11 04:44:36;;;;;;;7.53;6.55;;;;;;;9.56;40.59;99783.69;1779924;79;20991;-59
2021/04/11 04:47:10;;;;;;;8.80;7.85;;;;;;;9.86;39.97;99785.36;1789458;78;21002;-60
2021/04/11 04:49:56;;;;;;;10.03;7.40;;;;;;;10.09;39.63;99790.94;1804817;79;21037;-58
2021/04/11 04:52:29;;;;;;;9.63;7.65;;;;;;;10.29;39.30;99796.39;1801418;79;22274;-62
2021/04/11 04:55:16;;;;;;;9.05;7.42;;;;;;;10.50;38.73;99795.47;1780998;78;20949;-58
2021/04/11 04:58:12;;;;;;;11.18;7.60;;;;;;;10.68;38.60;99801.98;1780090;79;21037;-60
2021/04/11 05:00:51;;;;;;;10.60;7.50;;;;;;;10.91;38.30;99796.86;1787903;78;21088;-58
2021/04/11 05:03:40;;;;;;;8.28;7.28;;;;;;;11.12;37.89;99801.20;1782904;79;21069;-57
2021/04/11 05:06:16;;;;;;;12.98;8.08;;;;;;;11.25;37.32;99794.88;1750141;79;21386;-57
2021/04/11 05:09:13;;;;;;;9.70;7.40;;;;;;;11.34;37.46;99798.39;1742380;78;21116;-56
2021/04/11 05:11:46;;;;;;;7.60;6.75;;;;;;;11.51;37.34;99798.69;1783052;78;21096;-58
2021/04/11 05:14:22;;;;;;;9.98;6.85;;;;;;;11.72;36.85;99807.86;1776168;79;21093;-59
2021/04/11 05:17:00;;;;;;;12.20;7.92;;;;;;;11.78;36.73;99807.16;1799861;79;20943;-59
2021/04/11 05:19:38;;;;;;;11.48;7.58;;;;;;;12.01;36.77;99807.78;1789400;79;22274;-57
2021/04/11 05:22:53;;;;;;;9.63;7.28;;;;;;;12.39;35.94;99806.95;1836432;78;22795;-57
2021/04/11 05:25:55;;;;;;;9.45;6.92;;;;;;;12.54;35.60;99805.73;1805739;79;21117;-59
2021/04/11 05:29:16;;;;;;;9.93;7.70;;;;;;;12.82;35.33;99810.41;1796441;79;21346;-61
2021/04/11 05:31:44;;;;;;;8.70;7.28;;;;;;;13.01;34.80;99821.10;1776645;77;20985;-62
2021/04/11 05:34:15;;;;;;;8.60;7.40;;;;;;;13.13;34.43;99821.07;1779722;79;20973;-59
2021/04/11 05:37:26;;;;;;;9.13;7.75;;;;;;;13.25;34.24;99811.62;1796569;79;21600;-58
2021/04/11 05:40:17;;;;;;;8.93;7.03;;;;;;;13.35;33.44;99816.20;1773119;78;20914;-57
2021/04/11 05:43:15;;;;;;;8.93;7.40;;;;;;;13.30;33.41;99815.08;1794471;79;21190;-59
2021/04/11 05:46:04;;;;;;;12.68;7.87;;;;;;;13.35;33.48;99816.20;1780576;79;21012;-60
2021/04/11 05:48:57;;;;;;;10.15;7.92;;;;;;;13.49;33.05;99815.42;1766804;79;21012;-59
2021/04/11 05:51:42;;;;;;;10.35;6.95;;;;;;;13.73;32.74;99806.34;1774634;79;20925;-61
2021/04/11 05:54:22;;;;;;;8.33;7.05;;;;;;;14.02;31.81;99808.22;1770763;79;21649;-61
2021/04/11 05:56:55;;;;;;;7.78;6.92;;;;;;;14.11;32.00;99811.94;1759065;78;21377;-61
2021/04/11 05:59:36;;;;;;;8.88;7.62;;;;;;;14.35;32.15;99819.38;1777018;79;21527;-58
2021/04/11 06:02:04;;;;;;;9.15;8.25;;;;;;;14.49;31.46;99819.39;1775190;79;20994;-57
2021/04/11 06:04:38;;;;;;;8.45;7.08;;;;;;;14.65;31.03;99826.37;1758267;79;21020;-58
2021/04/11 06:07:31;;;;;;;11.08;7.15;;;;;;;14.61;31.13;99823.23;1759356;79;21044;-60
2021/04/11 06:10:04;;;;;;;11.12;8.23;;;;;;;14.67;31.51;99830.52;1766613;79;21398;-58
2021/04/11 06:12:45;;;;;;;10.65;8.33;;;;;;;14.61;31.35;99832.60;1770906;79;21013;-58
2021/04/11 06:15:25;;;;;;;10.18;7.15;;;;;;;14.65;31.41;99829.85;1737676;80;21119;-58
2021/04/11 06:17:54;;;;;;;12.25;7.55;;;;;;;14.83;31.00;99827.59;1773838;79;21641;-57
2021/04/11 06:20:23;;;;;;;9.05;7.90;;;;;;;15.03;31.31;99823.80;1775731;78;21203;-56
2021/04/11 06:23:20;;;;;;;9.13;7.53;;;;;;;15.27;30.81;99825.28;1775974;77;21352;-61
2021/04/11 06:25:50;;;;;;;;;;;;;;;15.37;32.23;99817.73;1780752;77;21558;-58
2021/04/11 06:28:42;;;;;;;9.65;7.60;;;;;;;15.59;31.27;99834.14;1794443;79;20112;-58
2021/04/11 06:31:11;;;;;;;8.50;6.85;;;;;;;15.70;29.53;99838.98;1793307;78;21187;-60
2021/04/11 06:33:57;;;;;;;10.10;7.35;;;;;;;15.63;29.35;99842.13;1786989;79;21677;-59
2021/04/11 06:36:37;;;;;;;8.05;7.00;;;;;;;15.65;29.57;99841.42;1791838;79;22266;-60
2021/04/11 06:39:18;;;;;;;8.00;6.28;;;;;;;15.70;28.73;99855.08;1789285;79;21191;-58
2021/04/11 06:42:31;;;;;;;7.70;6.83;;;;;;;15.63;28.86;99850.17;1797391;79;21620;-60
2021/04/11 06:45:26;;;;;;;6.80;6.10;;;;;;;15.61;28.96;99846.86;1785052;78;21183;-58
2021/04/11 06:48:15;;;;;;;7.72;6.75;;;;;;;15.69;29.01;99826.61;1783748;79;21060;-60
2021/04/11 06:51:26;;;;;;;9.03;6.53;;;;;;;15.90;29.00;99842.63;1787466;79;22261;-59
2021/04/11 06:54:27;;;;;;;8.53;7.03;;;;;;;16.01;28.82;99834.05;1777279;78;21112;-58
2021/04/11 06:57:20;;;;;;;6.62;5.92;;;;;;;16.18;28.57;99841.28;1785571;79;20926;-58
2021/04/11 07:00:01;;;;;;;9.45;6.40;;;;;;;16.30;28.84;99841.55;1782453;79;21139;-59
2021/04/11 07:03:00;;;;;;;7.25;6.08;;;;;;;16.43;28.23;99849.67;1794746;78;20911;-60
2021/04/11 07:05:52;;;;;;;9.95;7.30;;;;;;;16.40;28.12;99843.38;1788557;79;21198;-60
2021/04/11 07:09:05;;;;;;;7.00;6.08;;;;;;;16.43;28.46;99845.64;1761893;78;20898;-61
2021/04/11 07:12:00;;;;;;;8.35;6.20;;;;;;;16.63;28.30;99850.64;1785886;79;20990;-58
2021/04/11 07:14:51;;;;;;;6.87;6.22;;;;;;;16.83;27.94;99860.11;1778703;79;20914;-57
2021/04/11 07:17:37;;;;;;;7.17;6.00;;;;;;;16.91;27.77;99868.83;1805082;79;21060;-56
2021/04/11 07:20:48;;;;;;;7.42;6.70;;;;;;;17.10;27.84;99849.23;1786293;79;21334;-59
2021/04/11 07:23:48;;;;;;;8.48;6.78;;;;;;;17.22;28.03;99847.63;1794259;79;21136;-59
2021/04/11 07:26:49;;;;;;;8.83;6.15;;;;;;;17.40;27.42;99851.56;1788910;79;21140;-57
2021/04/11 07:30:01;;;;;;;9.28;7.10;;;;;;;17.45;27.81;99871.95;1781446;79;21116;-59
2021/04/11 07:33:08;;;;;;;7.92;6.45;;;;;;;17.38;28.10;99857.67;1803716;79;21049;-58
2021/04/11 07:35:59;;;;;;;7.53;6.83;;;;;;;17.42;27.69;99877.73;1797558;78;21194;-60
2021/04/11 07:38:59;;;;;;;7.03;6.33;;;;;;;17.32;27.53;99875.45;1798358;79;21152;-61
2021/04/11 07:41:42;;;;;;;7.58;6.40;;;;;;;17.04;27.78;99881.48;1762599;79;21092;-58
2021/04/11 07:44:40;;;;;;;7.00;6.30;;;;;;;16.80;28.60;99868.06;1775643;79;21111;-59
2021/04/11 07:47:28;;;;;;;9.50;5.80;;;;;;;16.71;28.72;99880.02;1768065;79;21080;-58
2021/04/11 07:50:22;;;;;;;10.10;6.53;;;;;;;16.68;28.82;99872.36;1781554;78;21489;-56
2021/04/11 07:53:07;;;;;;;6.53;5.78;;;;;;;16.81;29.19;99881.82;1778647;79;21102;-57
2021/04/11 07:55:42;;;;;;;8.80;6.35;;;;;;;17.14;28.48;99869.31;1791907;79;20910;-58
2021/04/11 07:58:30;;;;;;;7.85;5.80;;;;;;;17.43;28.19;99868.64;1795044;78;21176;-61
2021/04/11 08:01:28;;;;;;;8.00;5.95;;;;;;;17.68;28.19;99872.41;1790170;79;20914;-59
2021/04/11 08:04:07;;;;;;;7.90;6.12;;;;;;;17.89;27.15;99874.38;1791385;79;21089;-58
2021/04/11 08:07:25;;;;;;;6.58;5.83;;;;;;;18.06;27.30;99866.72;1792930;79;20954;-57
2021/04/11 08:10:36;;;;;;;6.62;6.03;;;;;;;18.31;26.90;99880.34;1793083;79;21562;-59
2021/04/11 08:13:44;;;;;;;7.65;6.37;;;;;;;18.54;26.88;99862.41;1790525;79;21036;-57
2021/04/11 08:16:31;;;;;;;7.72;6.72;;;;;;;18.88;26.46;99858.83;1792134;79;20978;-57
2021/04/11 08:19:39;;;;;;;9.93;6.30;;;;;;;19.08;25.74;99862.24;1792101;79;21195;-57
2021/04/11 08:22:43;;;;;;;10.32;6.25;;;;;;;19.04;25.26;99863.73;1796328;79;20926;-57
2021/04/11 08:25:32;;;;;;;6.30;5.65;;;;;;;18.95;25.35;99881.73;1802169;79;21118;-58
2021/04/11 08:28:14;;;;;;;13.00;6.30;;;;;;;18.85;25.33;99878.66;1799339;79;20906;-57
2021/04/11 08:31:08;;;;;;;6.65;6.05;;;;;;;18.85;25.33;99878.66;1794271;79;21144;-58
2021/04/11 08:34:04;;;;;;;10.55;6.40;;;;;;;18.81;25.73;99882.81;1741384;82;21198;-57
2021/04/11 08:37:10;;;;;;;9.23;6.07;;;;;;;18.75;26.00;99868.31;1738822;82;21131;-57
2021/04/11 08:39:49;;;;;;;6.90;6.28;;;;;;;18.89;25.83;99863.70;1771979;80;20925;-58
2021/04/11 08:43:04;;;;;;;6.08;5.47;;;;;;;19.20;25.74;99874.53;1744805;80;21099;-58
2021/04/11 08:45:49;;;;;;;7.50;6.08;;;;;;;19.34;25.63;99870.72;1716659;81;21151;-57
2021/04/11 08:48:30;;;;;;;6.37;5.85;;;;;;;19.40;25.58;99873.91;1747567;80;21260;-57
2021/04/11 08:51:15;;;;;;;6.10;5.50;;;;;;;19.58;25.23;99887.48;1741695;80;21159;-63
2021/04/11 08:53:59;;;;;;;9.08;5.55;;;;;;;19.69;24.55;99889.48;1754561;77;21575;-57
2021/04/11 08:56:58;;;;;;;6.47;5.53;;;;;;;19.73;24.58;99869.09;1794993;78;21636;-62
2021/04/11 09:00:03;;;;;;;7.87;5.78;;;;;;;19.84;24.28;99866.75;1784881;77;21203;-59
2021/04/11 09:03:08;;;;;;;5.87;5.12;;;;;;;19.88;23.87;99862.55;1785703;77;21374;-59
2021/04/11 09:05:58;;;;;;;5.53;5.00;;;;;;;19.64;24.66;99866.89;1733778;82;21083;-57
2021/04/11 09:08:54;;;;;;;6.33;5.55;;;;;;;19.60;25.07;99872.44;1800326;77;21459;-58
2021/04/11 09:12:00;;;;;;;7.25;5.85;;;;;;;19.79;25.39;99859.84;1791488;79;20985;-59
2021/04/11 09:15:04;;;;;;;8.50;5.28;;;;;;;19.93;24.45;99857.31;1781855;79;21670;-59
2021/04/11 09:18:02;;;;;;;6.78;5.42;;;;;;;20.13;24.31;99859.30;1788550;79;21273;-57
2021/04/11 09:21:06;;;;;;;7.60;5.55;;;;;;;20.13;23.93;99870.09;1785950;79;21021;-64
2021/04/11 09:23:47;;;;;;;5.72;5.15;;;;;;;19.97;24.44;99848.54;1776214;79;21033;-55
2021/04/11 09:27:02;;;;;;;9.98;5.42;;;;;;;20.10;24.49;99858.41;1770960;79;21080;-57
2021/04/11 09:30:02;;;;;;;6.03;5.42;;;;;;;19.89;24.51;99883.11;1774168;79;21018;-59
2021/04/11 09:33:10;;;;;;;6.78;5.12;;;;;;;19.88;24.43;99867.95;1771618;79;21370;-57
2021/04/11 09:36:17;;;;;;;6.03;5.12;;;;;;;19.89;24.66;99850.72;1771865;79;20902;-58
2021/04/11 09:38:54;;;;;;;7.72;5.80;;;;;;;19.88;24.89;99849.05;1778184;79;21116;-60
2021/04/11 09:42:07;;;;;;;5.70;5.20;;;;;;;20.03;24.70;99865.73;1793468;79;21132;-57
2021/04/11 09:45:01;;;;;;;6.05;5.35;;;;;;;20.16;24.51;99846.18;1773084;79;20990;-60
2021/04/11 09:47:44;;;;;;;6.37;5.75;;;;;;;20.11;24.58;99840.63;1783076;78;22308;-60
2021/04/11 09:50:43;;;;;;;5.97;5.37;;;;;;;20.08;24.23;99859.14;1779503;78;21167;-57
2021/04/11 09:53:51;;;;;;;6.70;6.00;;;;;;;19.93;23.67;99842.46;1773157;79;21092;-59
2021/04/11 09:56:32;;;;;;;6.22;5.62;;;;;;;19.76;23.87;99846.27;1772735;79;21610;-57
2021/04/11 09:59:40;;;;;;;5.92;5.42;;;;;;;19.57;24.46;99844.02;1788486;79;21155;-56
2021/04/11 10:02:16;;;;;;;6.22;5.00;;;;;;;19.68;24.73;99833.84;1777563;79;21181;-58
2021/04/11 10:05:27;;;;;;;6.03;5.42;;;;;;;19.83;23.80;99824.08;1788432;78;21081;-59
2021/04/11 10:08:25;;;;;;;8.38;5.80;;;;;;;19.84;24.00;99823.02;1781643;79;20914;-59
2021/04/11 10:11:39;;;;;;;8.03;7.22;;;;;;;19.95;24.36;99831.74;1771270;79;21104;-60
2021/04/11 10:14:37;;;;;;;13.58;9.58;;;;;;;19.71;24.04;99825.31;1771797;79;21476;-59
2021/04/11 10:17:29;;;;;;;9.28;6.25;;;;;;;19.44;24.67;99841.94;1781687;79;21273;-59
2021/04/11 10:20:21;;;;;;;5.72;4.47;;;;;;;19.42;23.78;99843.48;1700572;81;21076;-58
2021/04/11 10:23:09;;;;;;;7.90;5.45;;;;;;;19.25;24.31;99847.73;1743808;81;21016;-58
2021/04/11 10:25:50;;;;;;;8.30;5.10;;;;;;;19.26;24.43;99835.91;1747973;81;21120;-58
2021/04/11 10:28:47;;;;;;;15.43;11.53;;;;;;;19.25;24.31;99815.38;1745475;81;21060;-59
2021/04/11 10:31:54;;;;;;;14.50;11.05;;;;;;;19.39;24.72;99813.44;1824975;77;22326;-59
2021/04/11 10:34:36;;;;;;;9.13;5.67;;;;;;;19.47;24.65;99824.80;1817378;78;21056;-59
2021/04/11 10:37:21;;;;;;;7.25;5.37;;;;;;;19.52;24.60;99815.52;1743301;81;21415;-60
2021/04/11 10:40:33;;;;;;;10.25;6.20;;;;;;;19.60;24.11;99809.02;1736312;81;21068;-59
2021/04/11 10:43:32;;;;;;;6.50;5.65;;;;;;;19.48;24.25;99810.25;1742580;82;21018;-58
2021/04/11 10:46:16;;;;;;;10.18;5.17;;;;;;;19.35;23.96;99814.88;1742350;80;21115;-60
2021/04/11 10:49:10;;;;;;;4.90;4.37;;;;;;;19.19;24.22;99814.88;1767205;80;20951;-60
2021/04/11 10:52:09;;;;;;;9.13;7.30;;;;;;;19.24;24.38;99814.25;1776743;79;21360;-56
2021/04/11 10:54:53;;;;;;;6.72;5.35;;;;;;;19.31;24.41;99810.98;1774669;80;21066;-58
2021/04/11 10:57:44;;;;;;;9.78;6.30;;;;;;;19.42;23.98;99827.84;1749737;82;20947;-59
2021/04/11 11:00:20;;;;;;;5.80;5.20;;;;;;;19.31;23.78;99828.00;1780484;80;20934;-59
2021/04/11 11:03:28;;;;;;;7.25;4.87;;;;;;;19.12;23.53;99796.58;1829934;78;23242;-58
2021/04/11 11:06:30;;;;;;;5.08;4.58;;;;;;;19.09;24.15;99799.70;1795705;77;21065;-58
2021/04/11 11:09:18;;;;;;;6.70;5.90;;;;;;;19.28;24.16;99807.36;1783727;79;21358;-56
2021/04/11 11:12:21;;;;;;;8.13;4.85;;;;;;;19.29;23.35;99822.52;1777029;79;21088;-57
2021/04/11 11:15:19;;;;;;;5.42;4.80;;;;;;;19.18;23.51;99805.16;1799777;79;21086;-58
2021/04/11 11:18:21;;;;;;;5.53;4.50;;;;;;;19.09;23.73;99811.33;1768032;79;21267;-56
2021/04/11 11:21:09;;;;;;;4.85;4.30;;;;;;;18.89;23.39;99790.41;1788654;79;21048;-56
2021/04/11 11:24:05;;;;;;;7.47;4.83;;;;;;;18.82;23.34;99783.41;1805856;79;21479;-57
2021/04/11 11:27:03;;;;;;;9.50;5.33;;;;;;;18.82;23.62;99814.40;1763388;79;20905;-57
2021/04/11 11:29:56;;;;;;;9.23;4.65;;;;;;;18.83;24.11;99791.78;1778515;79;21025;-55
2021/04/11 11:32:35;;;;;;;5.17;4.67;;;;;;;18.92;23.65;99781.06;1789711;79;20965;-57
2021/04/11 11:35:07;;;;;;;5.92;4.40;;;;;;;18.96;23.36;99772.83;1786117;79;21111;-58
2021/04/11 11:38:10;;;;;;;6.22;4.30;;;;;;;18.88;23.01;99784.70;1811347;77;21367;-57
2021/04/11 11:40:59;;;;;;;6.35;5.62;;;;;;;18.81;23.31;99779.05;1788065;79;21032;-58
2021/04/11 11:43:59;;;;;;;4.58;3.92;;;;;;;18.76;22.97;99786.44;1799048;78;20926;-60
2021/04/11 11:46:56;;;;;;;7.08;4.80;;;;;;;18.73;23.24;99778.78;1779774;79;21064;-57
2021/04/11 11:49:28;;;;;;;6.17;4.78;;;;;;;18.79;22.95;99779.79;1776710;78;21096;-56
2021/04/11 11:52:24;;;;;;;6.22;5.22;;;;;;;18.83;23.05;99779.64;1787880;79;21198;-58
2021/04/11 11:55:06;;;;;;;8.83;5.03;;;;;;;18.73;23.00;99776.08;1796926;79;20997;-56
2021/04/11 11:57:53;;;;;;;8.08;4.72;;;;;;;18.56;23.63;99770.06;1785536;79;21025;-56
2021/04/11 12:00:31;;;;;;;6.15;3.98;;;;;;;18.44;23.94;99781.47;1776741;78;21565;-59
2021/04/11 12:03:31;;;;;;;5.50;4.53;;;;;;;18.44;24.13;99769.35;1767307;79;21140;-59
2021/04/11 12:06:23;;;;;;;6.37;4.50;;;;;;;18.51;23.74;99777.42;1775178;79;21262;-58
2021/04/11 12:09:09;;;;;;;6.30;5.70;;;;;;;18.50;23.40;99769.05;1797218;79;21195;-60
2021/04/11 12:12:00;;;;;;;7.17;4.60;;;;;;;18.44;23.72;99760.44;1781080;79;21067;-57
2021/04/11 12:15:04;;;;;;;5.50;4.85;;;;;;;18.29;24.07;99755.33;1784408;79;21051;-56
2021/04/11 12:17:45;;;;;;;5.85;4.53;;;;;;;18.28;24.07;99771.17;1746975;79;21119;-56
2021/04/11 12:20:17;;;;;;;5.62;5.00;;;;;;;18.19;23.93;99750.09;1758622;79;21364;-58
2021/04/11 12:22:58;;;;;;;4.97;4.45;;;;;;;18.13;24.02;99750.41;1780670;79;21193;-55
2021/04/11 12:25:28;;;;;;;7.97;4.92;;;;;;;18.09;24.27;99762.66;1775241;79;21044;-57
2021/04/11 12:27:56;;;;;;;5.28;4.78;;;;;;;18.05;23.91;99756.03;1760941;79;21491;-56
2021/04/11 12:30:33;;;;;;;5.85;4.37;;;;;;;18.00;23.82;99777.88;1766423;79;21115;-57
2021/04/11 12:33:14;;;;;;;4.62;3.98;;;;;;;17.97;23.92;99762.98;1751224;79;21559;-58
2021/04/11 12:35:52;;;;;;;6.47;4.90;;;;;;;17.95;23.81;99748.92;1767712;79;21000;-55
2021/04/11 12:38:41;;;;;;;5.70;4.85;;;;;;;17.93;24.12;99744.78;1755502;79;21057;-57
2021/04/11 12:41:37;;;;;;;7.45;6.10;;;;;;;17.92;24.03;99752.03;1747000;79;21008;-58
2021/04/11 12:44:33;;;;;;;10.93;8.98;;;;;;;17.79;23.96;99730.02;1758501;79;21542;-56
2021/04/11 12:47:30;;;;;;;8.63;7.72;;;;;;;17.75;24.48;99729.31;1756107;79;21521;-57
2021/04/11 12:50:13;;;;;;;7.37;6.67;;;;;;;17.77;24.59;99750.93;1760582;79;21152;-56
2021/04/11 12:53:07;;;;;;;11.15;9.95;;;;;;;17.76;24.57;99757.84;1795854;79;21124;-58
2021/04/11 12:55:56;;;;;;;11.08;9.75;;;;;;;17.71;24.19;99729.41;1794277;79;21456;-59
2021/04/11 12:58:40;;;;;;;11.57;7.85;;;;;;;17.64;24.10;99717.84;1795068;78;20967;-58
2021/04/11 13:01:31;;;;;;;11.80;9.25;;;;;;;17.59;24.22;99730.58;1765409;79;21326;-58